Ship Status Report: callsign BDCJ

sailwx.info

Track history (hours):
 
Tides and Currents Weather Stations Pressure Air Temp Water Temp Dewpoint Dewpoint Depression Visibility Wind Speed Wind Dir Waves Ship Positions

Oceanographic research ship ()

Last reported at 2019-Jun-19 05:55 UTC. Time now 2019-Jun-19 20:56 UTC.
Position N 22°37' E 120°13'.

Type: Ship (hazmat cat C). MMSI: 404455160.

Date/timePositionNaut miles runAvg speedWind from/ knotsBaromVisibWave heightAir tempDewpointWater temp
2019-Jun-19 05:55N 22°37' E 120°13'3 8.3
2019-Jun-19 05:30N 22°40' E 120°11'  
2019-Jun-14 21:52N 22°36' E 120°17'0 0.0
2019-Jun-14 21:30N 22°36' E 120°17'0 0.0
2019-Jun-14 21:00N 22°36' E 120°17'0 0.0
2019-Jun-14 20:30N 22°36' E 120°17'0 0.0
2019-Jun-14 20:00N 22°36' E 120°17'0 0.0
2019-Jun-14 19:30N 22°36' E 120°17'0 0.0
2019-Jun-14 13:28N 22°36' E 120°17'0 0.0
2019-Jun-14 13:00N 22°36' E 120°17'0 0.0
2019-Jun-14 12:30N 22°36' E 120°17'0 0.0
2019-Jun-14 05:57N 22°36' E 120°17'0 0.0
2019-Jun-14 05:02N 22°36' E 120°17'0 0.0
2019-Jun-14 05:01N 22°36' E 120°17'0 0.0
2019-Jun-13 08:43N 22°36' E 120°17'0 0.0
2019-Jun-13 08:30N 22°36' E 120°17'2 0.1
2019-Jun-12 05:48N 22°37' E 120°15'3 8.7
2019-Jun-12 05:30N 22°37' E 120°12'12 8.7
2019-Jun-12 04:08N 22°25' E 120°15'5 0.1
2019-Jun-10 03:47N 22°30' E 120°13'8 3.6
2019-Jun-10 01:39N 22°36' E 120°17'0 0.0
2019-Jun-10 01:21N 22°36' E 120°17'0 0.0
2019-Jun-10 01:00N 22°36' E 120°17'0 0.0
2019-Jun-09 15:20N 22°36' E 120°17'0 0.0
2019-Jun-09 15:01N 22°36' E 120°17'0 0.0
2019-Jun-09 14:30N 22°36' E 120°17'0 0.0
2019-Jun-09 14:00N 22°36' E 120°17'0 0.0
2019-Jun-09 13:31N 22°36' E 120°17'0 0.0
2019-Jun-09 13:01N 22°36' E 120°17'0 0.0
2019-Jun-09 12:31N 22°36' E 120°17'0 0.0
2019-Jun-09 10:35N 22°36' E 120°17'0 0.1
2019-Jun-09 10:31N 22°36' E 120°17'0 0.0
2019-Jun-09 04:43N 22°36' E 120°17'0 0.0
2019-Jun-09 03:59N 22°36' E 120°17'0 0.0
2019-Jun-09 02:42N 22°36' E 120°17'0 0.0
2019-Jun-09 02:28N 22°36' E 120°17'0 0.0
2019-Jun-09 02:00N 22°36' E 120°17'0 0.0
2019-Jun-08 15:42N 22°36' E 120°17'0 0.0
2019-Jun-08 15:30N 22°36' E 120°17'0 0.0
2019-Jun-08 15:00N 22°36' E 120°17'0 0.0
2019-Jun-08 14:30N 22°36' E 120°17'0 0.0
2019-Jun-08 14:00N 22°36' E 120°17'0 0.0
2019-Jun-07 18:09N 22°36' E 120°17'0 0.0
2019-Jun-07 18:00N 22°36' E 120°17'0 0.0
2019-Jun-07 14:18N 22°36' E 120°17'0 0.0
2019-Jun-07 13:45N 22°36' E 120°17'0 0.0
2019-Jun-07 13:30N 22°36' E 120°17'0 0.0
2019-Jun-07 13:00N 22°36' E 120°17'0 0.0
2019-Jun-07 05:53N 22°36' E 120°17'0 0.0
2019-Jun-07 05:30N 22°36' E 120°17'0 0.0
2019-Jun-07 04:14N 22°36' E 120°17'0 0.0
2019-Jun-07 04:00N 22°36' E 120°17'0 0.0
2019-Jun-06 15:13N 22°36' E 120°17'0 0.0
2019-Jun-06 10:39N 22°36' E 120°17'0 0.0
2019-Jun-06 10:30N 22°36' E 120°17'0 0.0
2019-Jun-06 09:44N 22°36' E 120°17'0 0.0
2019-Jun-06 09:30N 22°36' E 120°17'  
Track history (hours):
 
Tides and Currents Weather Stations Pressure Air Temp Water Temp Dewpoint Dewpoint Depression Visibility Wind Speed Wind Dir Waves Ship Positions

Oceanographic research ship ()

Last reported at 2019-Jun-19 05:55 UTC. Time now 2019-Jun-19 20:56 UTC.
Position N 22°37' E 120°13'.

Type: Ship (hazmat cat C). MMSI: 404455160.

Date/timePositionNaut miles runAvg speedWind from/ knotsBaromVisibWave heightAir tempDewpointWater temp
2019-Jun-19 05:55N 22°37' E 120°13'3 8.3
2019-Jun-19 05:30N 22°40' E 120°11'  
2019-Jun-14 21:52N 22°36' E 120°17'0 0.0
2019-Jun-14 21:30N 22°36' E 120°17'0 0.0
2019-Jun-14 21:00N 22°36' E 120°17'0 0.0
2019-Jun-14 20:30N 22°36' E 120°17'0 0.0
2019-Jun-14 20:00N 22°36' E 120°17'0 0.0
2019-Jun-14 19:30N 22°36' E 120°17'0 0.0
2019-Jun-14 13:28N 22°36' E 120°17'0 0.0
2019-Jun-14 13:00N 22°36' E 120°17'0 0.0
2019-Jun-14 12:30N 22°36' E 120°17'0 0.0
2019-Jun-14 05:57N 22°36' E 120°17'0 0.0
2019-Jun-14 05:02N 22°36' E 120°17'0 0.0
2019-Jun-14 05:01N 22°36' E 120°17'0 0.0
2019-Jun-13 08:43N 22°36' E 120°17'0 0.0
2019-Jun-13 08:30N 22°36' E 120°17'2 0.1
2019-Jun-12 05:48N 22°37' E 120°15'3 8.7
2019-Jun-12 05:30N 22°37' E 120°12'12 8.7
2019-Jun-12 04:08N 22°25' E 120°15'5 0.1
2019-Jun-10 03:47N 22°30' E 120°13'8 3.6
2019-Jun-10 01:39N 22°36' E 120°17'0 0.0
2019-Jun-10 01:21N 22°36' E 120°17'0 0.0
2019-Jun-10 01:00N 22°36' E 120°17'0 0.0
2019-Jun-09 15:20N 22°36' E 120°17'0 0.0
2019-Jun-09 15:01N 22°36' E 120°17'0 0.0
2019-Jun-09 14:30N 22°36' E 120°17'0 0.0
2019-Jun-09 14:00N 22°36' E 120°17'0 0.0
2019-Jun-09 13:31N 22°36' E 120°17'0 0.0
2019-Jun-09 13:01N 22°36' E 120°17'0 0.0
2019-Jun-09 12:31N 22°36' E 120°17'0 0.0
2019-Jun-09 10:35N 22°36' E 120°17'0 0.1
2019-Jun-09 10:31N 22°36' E 120°17'0 0.0
2019-Jun-09 04:43N 22°36' E 120°17'0 0.0
2019-Jun-09 03:59N 22°36' E 120°17'0 0.0
2019-Jun-09 02:42N 22°36' E 120°17'0 0.0
2019-Jun-09 02:28N 22°36' E 120°17'0 0.0
2019-Jun-09 02:00N 22°36' E 120°17'0 0.0
2019-Jun-08 15:42N 22°36' E 120°17'0 0.0
2019-Jun-08 15:30N 22°36' E 120°17'0 0.0
2019-Jun-08 15:00N 22°36' E 120°17'0 0.0
2019-Jun-08 14:30N 22°36' E 120°17'0 0.0
2019-Jun-08 14:00N 22°36' E 120°17'0 0.0
2019-Jun-07 18:09N 22°36' E 120°17'0 0.0
2019-Jun-07 18:00N 22°36' E 120°17'0 0.0
2019-Jun-07 14:18N 22°36' E 120°17'0 0.0
2019-Jun-07 13:45N 22°36' E 120°17'0 0.0
2019-Jun-07 13:30N 22°36' E 120°17'0 0.0
2019-Jun-07 13:00N 22°36' E 120°17'0 0.0
2019-Jun-07 05:53N 22°36' E 120°17'0 0.0
2019-Jun-07 05:30N 22°36' E 120°17'0 0.0
2019-Jun-07 04:14N 22°36' E 120°17'0 0.0
2019-Jun-07 04:00N 22°36' E 120°17'0 0.0
2019-Jun-06 15:13N 22°36' E 120°17'0 0.0
2019-Jun-06 10:39N 22°36' E 120°17'0 0.0
2019-Jun-06 10:30N 22°36' E 120°17'0 0.0
2019-Jun-06 09:44N 22°36' E 120°17'0 0.0
2019-Jun-06 09:30N 22°36' E 120°17'  

Dump ship's entire track history